Time,TemperatureF,DewpointF,PressureIn,WindDirection,WindDirectionDegrees,WindSpeedMPH,WindSpeedGustMPH,Humidity,HourlyPrecipIn,Conditions,Clouds,dailyrainin,SoftwareType,DateUTC
2013-02-27 00:00:00,35.2,21.2,29.97,NE,56,7.0,999.9,56,0.00,,,0.00,Weather View 32 v70,2013-02-27 05:00:00,
2013-02-27 00:05:00,34.9,21.1,29.97,East,83,6.0,999.9,57,0.00,,,0.00,Weather View 32 v70,2013-02-27 05:05:00,
2013-02-27 00:10:00,35.4,21.7,29.97,ENE,60,5.0,20.0,57,0.00,,,0.00,Weather View 32 v70,2013-02-27 05:10:00,
2013-02-27 00:15:00,30.0,-59.6,0.00,North,0,0.0,20.0,1,0.00,,,0.00,Weather View 32 v70,2013-02-27 05:15:00,
2013-02-27 00:20:00,35.2,21.8,29.97,East,88,3.0,20.0,58,0.00,,,0.00,Weather View 32 v70,2013-02-27 05:20:00,
2013-02-27 00:25:00,35.4,22.1,29.94,ENE,60,5.0,20.0,58,0.00,,,0.00,Weather View 32 v70,2013-02-27 05:25:00,
2013-02-27 00:30:00,30.0,-59.6,0.00,North,0,0.0,15.0,1,0.00,,,0.00,Weather View 32 v70,2013-02-27 05:30:00,
2013-02-27 00:35:00,35.2,22.3,29.97,NE,46,7.0,15.0,59,0.00,,,0.00,Weather View 32 v70,2013-02-27 05:35:00,
2013-02-27 00:40:00,34.7,22.0,29.94,ESE,114,11.0,15.0,60,0.00,,,0.00,Weather View 32 v70,2013-02-27 05:40:00,
2013-02-27 00:45:00,34.9,22.7,29.94,ENE,75,6.0,15.0,61,0.00,,,0.00,Weather View 32 v70,2013-02-27 05:45:00,
2013-02-27 00:50:00,34.7,22.8,29.91,ENE,70,11.0,15.0,61,0.00,,,0.00,Weather View 32 v70,2013-02-27 05:50:00,
2013-02-27 00:55:00,34.9,23.0,29.91,ENE,75,6.0,20.0,62,0.00,,,0.00,Weather View 32 v70,2013-02-27 05:55:00,
2013-02-27 01:00:00,35.2,23.6,29.94,ENE,63,4.0,20.0,62,0.00,,,0.00,Weather View 32 v70,2013-02-27 06:00:00,
2013-02-27 01:05:00,34.7,22.8,29.91,East,95,12.0,20.0,61,0.00,,,0.00,Weather View 32 v70,2013-02-27 06:05:00,
2013-02-27 01:10:00,30.0,-59.6,0.00,North,0,0.0,20.0,1,0.00,,,0.00,Weather View 32 v70,2013-02-27 06:10:00,
2013-02-27 01:15:00,35.2,23.3,29.91,East,100,7.0,20.0,62,0.00,,,0.00,Weather View 32 v70,2013-02-27 06:15:00,
2013-02-27 01:20:00,34.9,23.0,29.91,ESE,107,13.0,20.0,62,0.00,,,0.00,Weather View 32 v70,2013-02-27 06:20:00,
2013-02-27 01:25:00,35.6,24.0,29.94,NE,53,7.0,20.0,63,0.00,,,0.00,Weather View 32 v70,2013-02-27 06:25:00,
2013-02-27 01:30:00,35.4,23.5,29.91,East,81,5.0,20.0,62,0.00,,,0.00,Weather View 32 v70,2013-02-27 06:30:00,
2013-02-27 01:35:00,35.6,23.4,29.91,ENE,77,6.0,20.0,61,0.00,,,0.00,Weather View 32 v70,2013-02-27 06:35:00,
2013-02-27 01:40:00,30.0,-59.6,0.00,North,0,0.0,20.0,1,0.00,,,0.00,Weather View 32 v70,2013-02-27 06:40:00,
2013-02-27 01:45:00,36.1,24.2,29.91,NE,52,4.0,20.0,62,0.00,,,0.00,Weather View 32 v70,2013-02-27 06:45:00,
2013-02-27 01:50:00,35.6,23.8,29.91,East,84,5.0,20.0,62,0.00,,,0.00,Weather View 32 v70,2013-02-27 06:50:00,
2013-02-27 01:55:00,35.8,24.2,29.91,ENE,75,3.0,17.0,62,0.00,,,0.00,Weather View 32 v70,2013-02-27 06:55:00,
2013-02-27 02:00:00,36.1,24.5,29.94,ENE,63,3.0,17.0,62,0.00,,,0.00,Weather View 32 v70,2013-02-27 07:00:00,
2013-02-27 02:05:00,35.6,23.7,29.91,East,97,12.0,17.0,62,0.00,,,0.00,Weather View 32 v70,2013-02-27 07:05:00,
2013-02-27 02:10:00,35.6,24.6,29.91,East,87,5.0,14.0,64,0.00,,,0.00,Weather View 32 v70,2013-02-27 07:10:00,
2013-02-27 02:15:00,30.0,-59.6,0.00,North,0,0.0,14.0,1,0.00,,,0.00,Weather View 32 v70,2013-02-27 07:15:00,
2013-02-27 02:21:00,36.1,24.8,29.91,ENE,61,5.0,14.0,63,0.00,,,0.00,Weather View 32 v70,2013-02-27 07:21:00,
2013-02-27 02:26:00,35.9,24.6,29.88,ENE,58,12.0,14.0,63,0.00,,,0.00,Weather View 32 v70,2013-02-27 07:26:00,
2013-02-27 02:31:00,35.8,24.7,29.88,ENE,77,9.0,14.0,64,0.00,,,0.00,Weather View 32 v70,2013-02-27 07:31:00,
2013-02-27 02:36:00,35.9,25.0,29.88,ENE,62,6.0,14.0,64,0.00,,,0.00,Weather View 32 v70,2013-02-27 07:36:00,
2013-02-27 02:41:00,35.9,24.7,29.88,ENE,77,0.0,14.0,63,0.00,,,0.00,Weather View 32 v70,2013-02-27 07:41:00,
2013-02-27 02:46:00,35.8,25.2,29.88,ENE,75,10.0,20.0,65,0.00,,,0.00,Weather View 32 v70,2013-02-27 07:46:00,
2013-02-27 02:51:00,35.8,24.5,29.88,East,100,11.0,20.0,63,0.00,,,0.00,Weather View 32 v70,2013-02-27 07:51:00,
2013-02-27 02:56:00,35.8,24.7,29.88,ESE,106,15.0,20.0,64,0.00,,,0.00,Weather View 32 v70,2013-02-27 07:56:00,
2013-02-27 03:01:00,35.9,24.9,29.88,East,90,8.0,20.0,64,0.00,,,0.00,Weather View 32 v70,2013-02-27 08:01:00,
2013-02-27 03:06:00,36.1,25.3,29.88,ENE,71,6.0,20.0,65,0.00,,,0.00,Weather View 32 v70,2013-02-27 08:06:00,
2013-02-27 03:11:00,30.0,-59.6,0.00,North,0,0.0,20.0,1,0.00,,,0.00,Weather View 32 v70,2013-02-27 08:11:00,
2013-02-27 03:16:00,36.3,25.4,29.88,ENE,73,10.0,162.0,64,0.00,,,0.00,Weather View 32 v70,2013-02-27 08:16:00,
2013-02-27 03:21:00,36.1,25.3,29.80,East,88,12.0,162.0,65,0.00,,,0.00,Weather View 32 v70,2013-02-27 08:21:00,
2013-02-27 03:26:00,36.3,25.8,29.83,ENE,63,9.0,162.0,65,0.00,,,0.00,Weather View 32 v70,2013-02-27 08:26:00,
2013-02-27 03:31:00,36.1,25.6,29.83,ENE,78,8.0,162.0,65,0.00,,,0.00,Weather View 32 v70,2013-02-27 08:31:00,
2013-02-27 03:36:00,36.3,25.9,29.83,East,80,12.0,162.0,66,0.00,,,0.00,Weather View 32 v70,2013-02-27 08:36:00,
2013-02-27 03:41:00,36.1,25.8,29.83,East,85,12.0,162.0,66,0.00,,,0.00,Weather View 32 v70,2013-02-27 08:41:00,
2013-02-27 03:46:00,36.3,26.1,29.83,East,85,9.0,162.0,66,0.00,,,0.00,Weather View 32 v70,2013-02-27 08:46:00,
2013-02-27 03:51:00,36.3,26.1,29.77,East,101,15.0,162.0,66,0.00,,,0.00,Weather View 32 v70,2013-02-27 08:51:00,
2013-02-27 03:56:00,36.5,26.3,29.80,East,81,7.0,162.0,66,0.00,,,0.00,Weather View 32 v70,2013-02-27 08:56:00,
2013-02-27 04:01:00,30.0,-59.6,0.00,North,0,0.0,162.0,1,0.00,,,0.00,Weather View 32 v70,2013-02-27 09:01:00,
2013-02-27 04:06:00,36.8,26.6,29.80,ENE,68,11.0,162.0,66,0.00,,,0.00,Weather View 32 v70,2013-02-27 09:06:00,
2013-02-27 04:11:00,36.8,26.6,29.80,ENE,70,7.0,162.0,66,0.00,,,0.00,Weather View 32 v70,2013-02-27 09:11:00,
2013-02-27 04:16:00,36.7,26.4,29.80,East,100,15.0,131.0,66,0.00,,,0.00,Weather View 32 v70,2013-02-27 09:16:00,
2013-02-27 04:21:00,36.8,26.8,29.80,East,84,9.0,131.0,67,0.00,,,0.00,Weather View 32 v70,2013-02-27 09:21:00,
2013-02-27 04:26:00,36.8,26.6,29.80,East,79,9.0,131.0,66,0.00,,,0.00,Weather View 32 v70,2013-02-27 09:26:00,
2013-02-27 04:31:00,37.4,27.2,29.80,NE,44,12.0,131.0,67,0.00,,,0.00,Weather View 32 v70,2013-02-27 09:31:00,
2013-02-27 04:36:00,37.4,27.2,29.80,ENE,67,7.0,65.0,67,0.00,,,0.00,Weather View 32 v70,2013-02-27 09:36:00,
2013-02-27 04:41:00,37.4,27.5,29.77,ENE,75,13.0,65.0,67,0.00,,,0.00,Weather View 32 v70,2013-02-27 09:41:00,
2013-02-27 04:46:00,37.4,27.5,29.77,East,82,5.0,96.0,67,0.00,,,0.00,Weather View 32 v70,2013-02-27 09:46:00,
2013-02-27 04:51:00,37.9,27.9,29.77,NE,55,11.0,96.0,67,0.00,,,0.00,Weather View 32 v70,2013-02-27 09:51:00,
2013-02-27 04:56:00,38.1,28.0,29.77,East,82,5.0,96.0,67,0.00,,,0.00,Weather View 32 v70,2013-02-27 09:56:00,
2013-02-27 05:01:00,37.9,27.9,29.80,ENE,73,12.0,96.0,67,0.00,,,0.00,Weather View 32 v70,2013-02-27 10:01:00,
2013-02-27 05:06:00,37.9,27.9,29.77,East,90,8.0,96.0,67,0.00,,,0.00,Weather View 32 v70,2013-02-27 10:06:00,
2013-02-27 05:11:00,38.3,28.5,29.77,ENE,78,6.0,96.0,68,0.00,,,0.00,Weather View 32 v70,2013-02-27 10:11:00,
2013-02-27 05:17:00,38.1,28.1,29.77,ESE,103,11.0,96.0,67,0.00,,,0.00,Weather View 32 v70,2013-02-27 10:17:00,
2013-02-27 05:22:00,38.3,28.3,29.77,East,100,15.0,96.0,67,0.00,,,0.00,Weather View 32 v70,2013-02-27 10:22:00,
2013-02-27 05:27:00,38.5,28.8,29.74,East,80,10.0,96.0,68,0.00,,,0.00,Weather View 32 v70,2013-02-27 10:27:00,
2013-02-27 05:32:00,38.6,29.0,29.77,East,91,10.0,999.9,68,0.00,,,0.00,Weather View 32 v70,2013-02-27 10:32:00,
2013-02-27 05:37:00,39.0,29.5,29.74,NE,56,8.0,999.9,68,0.00,,,0.00,Weather View 32 v70,2013-02-27 10:37:00,
2013-02-27 05:42:00,38.5,29.1,29.74,East,88,14.0,999.9,69,0.00,,,0.00,Weather View 32 v70,2013-02-27 10:42:00,
2013-02-27 05:47:00,38.6,29.0,29.74,ENE,78,10.0,999.9,68,0.00,,,0.00,Weather View 32 v70,2013-02-27 10:47:00,
2013-02-27 05:52:00,38.6,28.9,29.74,East,99,15.0,999.9,68,0.00,,,0.00,Weather View 32 v70,2013-02-27 10:52:00,
2013-02-27 05:57:00,39.2,29.7,29.74,ENE,71,8.0,999.9,69,0.00,,,0.00,Weather View 32 v70,2013-02-27 10:57:00,
2013-02-27 06:02:00,39.2,29.5,29.74,ENE,61,9.0,999.9,68,0.00,,,0.00,Weather View 32 v70,2013-02-27 11:02:00,
2013-02-27 06:07:00,39.0,29.3,29.74,North,0,0.0,999.9,68,0.00,,,0.00,Weather View 32 v70,2013-02-27 11:07:00,
2013-02-27 06:12:00,39.4,29.7,29.71,ENE,62,12.0,999.9,68,0.00,,,0.00,Weather View 32 v70,2013-02-27 11:12:00,
2013-02-27 06:17:00,39.2,29.6,29.71,East,89,8.0,999.9,68,0.00,,,0.00,Weather View 32 v70,2013-02-27 11:17:00,
2013-02-27 06:22:00,39.2,29.4,29.74,ESE,102,13.0,999.9,68,0.00,,,0.00,Weather View 32 v70,2013-02-27 11:22:00,
2013-02-27 06:27:00,39.4,29.8,29.74,ENE,76,8.0,999.9,68,0.00,,,0.00,Weather View 32 v70,2013-02-27 11:27:00,
2013-02-27 06:32:00,39.5,29.8,29.74,ENE,67,11.0,999.9,68,0.00,,,0.00,Weather View 32 v70,2013-02-27 11:32:00,
2013-02-27 06:37:00,39.4,29.6,29.74,East,80,8.0,999.9,68,0.00,,,0.00,Weather View 32 v70,2013-02-27 11:37:00,
2013-02-27 06:42:00,39.5,30.0,29.71,East,88,7.0,999.9,68,0.00,,,0.00,Weather View 32 v70,2013-02-27 11:42:00,
2013-02-27 06:47:00,30.0,-59.6,0.00,North,0,0.0,999.9,1,0.00,,,0.00,Weather View 32 v70,2013-02-27 11:47:00,
2013-02-27 06:52:00,39.5,29.8,29.74,North,7,0.0,999.9,68,0.00,,,0.00,Weather View 32 v70,2013-02-27 11:52:00,
2013-02-27 06:57:00,40.1,30.4,29.71,ENE,63,5.0,999.9,68,0.00,,,0.00,Weather View 32 v70,2013-02-27 11:57:00,
2013-02-27 07:02:00,39.7,29.8,29.71,East,82,9.0,999.9,68,0.00,,,0.00,Weather View 32 v70,2013-02-27 12:02:00,
2013-02-27 07:07:00,40.3,30.6,29.74,ENE,64,8.0,999.9,68,0.00,,,0.00,Weather View 32 v70,2013-02-27 12:07:00,
2013-02-27 07:12:00,40.4,30.7,29.71,ENE,61,7.0,999.9,68,0.00,,,0.00,Weather View 32 v70,2013-02-27 12:12:00,
2013-02-27 07:17:00,40.3,30.3,29.71,East,84,11.0,87.0,67,0.00,,,0.00,Weather View 32 v70,2013-02-27 12:17:00,
2013-02-27 07:22:00,40.4,30.5,29.71,East,80,8.0,87.0,67,0.00,,,0.00,Weather View 32 v70,2013-02-27 12:22:00,
2013-02-27 07:27:00,40.4,30.5,29.71,ENE,75,7.0,87.0,68,0.00,,,0.00,Weather View 32 v70,2013-02-27 12:27:00,
2013-02-27 07:32:00,40.8,30.9,29.71,ENE,76,7.0,87.0,68,0.00,,,0.00,Weather View 32 v70,2013-02-27 12:32:00,
2013-02-27 07:37:00,40.6,30.6,29.71,East,79,9.0,87.0,67,0.00,,,0.00,Weather View 32 v70,2013-02-27 12:37:00,
2013-02-27 07:42:00,41.0,31.0,29.71,ENE,78,8.0,87.0,67,0.00,,,0.00,Weather View 32 v70,2013-02-27 12:42:00,
2013-02-27 07:47:00,41.0,31.0,29.71,ENE,74,8.0,87.0,68,0.00,,,0.00,Weather View 32 v70,2013-02-27 12:47:00,
2013-02-27 07:52:00,41.2,31.2,29.68,ENE,58,11.0,17.0,68,0.00,,,0.00,Weather View 32 v70,2013-02-27 12:52:00,
2013-02-27 07:57:00,41.2,31.2,29.71,East,86,9.0,999.9,68,0.00,,,0.00,Weather View 32 v70,2013-02-27 12:57:00,
2013-02-27 08:03:00,41.3,31.4,29.68,East,89,7.0,999.9,68,0.00,,,0.00,Weather View 32 v70,2013-02-27 13:03:00,
2013-02-27 08:08:00,41.9,32.5,29.68,ENE,69,9.0,999.9,69,0.00,,,0.00,Weather View 32 v70,2013-02-27 13:08:00,
2013-02-27 08:13:00,41.9,32.5,29.68,ESE,112,12.0,999.9,69,0.00,,,0.00,Weather View 32 v70,2013-02-27 13:13:00,
2013-02-27 08:18:00,42.1,32.8,29.68,East,93,14.0,999.9,70,0.00,,,0.00,Weather View 32 v70,2013-02-27 13:18:00,
2013-02-27 08:23:00,42.1,32.5,29.68,East,87,13.0,999.9,69,0.00,,,0.00,Weather View 32 v70,2013-02-27 13:23:00,
2013-02-27 08:28:00,42.4,33.2,29.71,North,0,0.0,999.9,70,0.00,,,0.00,Weather View 32 v70,2013-02-27 13:28:00,
2013-02-27 08:33:00,42.4,-20.4,29.68,North,0,0.0,999.9,6,0.00,,,0.00,Weather View 32 v70,2013-02-27 13:33:00,
2013-02-27 08:38:00,42.4,33.1,29.71,East,93,17.0,999.9,69,0.00,,,0.00,Weather View 32 v70,2013-02-27 13:38:00,
2013-02-27 08:43:00,42.6,33.3,29.65,East,85,12.0,999.9,69,0.00,,,0.00,Weather View 32 v70,2013-02-27 13:43:00,
2013-02-27 08:48:00,42.8,33.4,29.65,East,98,11.0,999.9,69,0.00,,,0.00,Weather View 32 v70,2013-02-27 13:48:00,
2013-02-27 08:53:00,42.8,33.3,29.65,ESE,105,5.0,999.9,69,0.00,,,0.00,Weather View 32 v70,2013-02-27 13:53:00,
2013-02-27 08:58:00,42.8,33.1,29.65,East,84,18.0,999.9,69,0.00,,,0.00,Weather View 32 v70,2013-02-27 13:58:00,
2013-02-27 09:03:00,42.6,33.3,29.65,East,79,13.0,999.9,69,0.00,,,0.00,Weather View 32 v70,2013-02-27 14:03:00,
2013-02-27 09:08:00,30.0,-59.6,29.68,North,0,0.0,999.9,1,0.00,,,0.00,Weather View 32 v70,2013-02-27 14:08:00,
2013-02-27 09:13:00,42.8,33.4,29.65,ENE,72,18.0,999.9,69,0.00,,,0.00,Weather View 32 v70,2013-02-27 14:13:00,
2013-02-27 09:18:00,42.6,33.3,29.65,ENE,68,19.0,999.9,69,0.00,,,0.00,Weather View 32 v70,2013-02-27 14:18:00,
2013-02-27 09:23:00,42.8,33.3,29.65,NE,51,23.0,999.9,69,0.00,,,0.00,Weather View 32 v70,2013-02-27 14:23:00,
2013-02-27 09:28:00,42.6,33.3,29.65,NE,47,21.0,999.9,69,0.00,,,0.00,Weather View 32 v70,2013-02-27 14:28:00,
2013-02-27 09:33:00,42.6,33.1,29.65,ENE,60,15.0,999.9,69,0.00,,,0.00,Weather View 32 v70,2013-02-27 14:33:00,
2013-02-27 09:38:00,42.6,32.8,29.62,East,94,30.0,999.9,68,0.00,,,0.00,Weather View 32 v70,2013-02-27 14:38:00,
2013-02-27 09:43:00,30.0,-59.6,0.00,North,0,0.0,999.9,1,0.00,,,0.00,Weather View 32 v70,2013-02-27 14:43:00,
2013-02-27 09:48:00,42.6,33.2,29.62,NE,46,23.0,999.9,69,0.00,,,0.00,Weather View 32 v70,2013-02-27 14:48:00,
2013-02-27 09:53:00,42.4,33.0,29.62,NE,52,23.0,999.9,69,0.00,,,0.00,Weather View 32 v70,2013-02-27 14:53:00,
2013-02-27 09:58:00,42.6,33.2,29.62,NE,36,25.0,999.9,69,0.00,,,0.00,Weather View 32 v70,2013-02-27 14:58:00,
2013-02-27 10:03:00,42.6,33.1,29.62,ENE,66,21.0,999.9,69,0.00,,,0.00,Weather View 32 v70,2013-02-27 15:03:00,
2013-02-27 10:08:00,30.0,-59.6,29.62,North,0,0.0,999.9,1,0.00,,,0.00,Weather View 32 v70,2013-02-27 15:08:00,
2013-02-27 10:13:00,42.4,32.7,29.62,ENE,64,17.0,999.9,68,0.00,,,0.00,Weather View 32 v70,2013-02-27 15:13:00,
2013-02-27 10:18:00,42.4,32.7,29.59,East,90,19.0,999.9,68,0.00,,,0.00,Weather View 32 v70,2013-02-27 15:18:00,
2013-02-27 10:23:00,42.2,32.6,29.59,ENE,77,13.0,999.9,69,0.00,,,0.00,Weather View 32 v70,2013-02-27 15:23:00,
2013-02-27 10:28:00,42.2,32.6,29.59,East,80,17.0,999.9,69,0.00,,,0.00,Weather View 32 v70,2013-02-27 15:28:00,
2013-02-27 10:33:00,42.2,32.6,29.59,NE,50,18.0,999.9,69,0.00,,,0.00,Weather View 32 v70,2013-02-27 15:33:00,
2013-02-27 10:38:00,42.2,32.5,29.59,ESE,119,19.0,86.0,68,0.00,,,0.00,Weather View 32 v70,2013-02-27 15:38:00,
2013-02-27 10:43:00,42.2,32.6,29.59,ENE,61,15.0,86.0,69,0.00,,,0.00,Weather View 32 v70,2013-02-27 15:43:00,
2013-02-27 10:49:00,42.2,32.5,29.56,East,99,16.0,52.0,68,0.00,,,0.00,Weather View 32 v70,2013-02-27 15:49:00,
2013-02-27 10:54:00,42.2,32.5,29.59,ENE,78,11.0,52.0,68,0.00,,,0.00,Weather View 32 v70,2013-02-27 15:54:00,
2013-02-27 10:59:00,42.1,32.4,29.59,ESE,112,25.0,52.0,69,0.00,,,0.00,Weather View 32 v70,2013-02-27 15:59:00,
2013-02-27 11:04:00,42.1,32.8,29.62,ESE,118,20.0,138.0,70,0.00,,,0.00,Weather View 32 v70,2013-02-27 16:04:00,
2013-02-27 11:09:00,42.1,32.7,29.62,ENE,67,17.0,138.0,69,0.00,,,0.00,Weather View 32 v70,2013-02-27 16:09:00,
2013-02-27 11:14:00,42.1,32.6,29.59,ENE,65,22.0,138.0,69,0.00,,,0.00,Weather View 32 v70,2013-02-27 16:14:00,
2013-02-27 11:19:00,30.0,-59.6,0.00,North,0,0.0,157.0,1,0.00,,,0.00,Weather View 32 v70,2013-02-27 16:19:00,
2013-02-27 11:24:00,42.2,32.8,29.59,East,82,11.0,157.0,69,0.00,,,0.00,Weather View 32 v70,2013-02-27 16:24:00,
2013-02-27 11:29:00,30.0,-59.6,0.00,North,0,0.0,157.0,1,0.00,,,0.00,Weather View 32 v70,2013-02-27 16:29:00,
2013-02-27 11:34:00,42.2,32.5,29.59,ESE,107,11.0,157.0,68,0.00,,,0.00,Weather View 32 v70,2013-02-27 16:34:00,
2013-02-27 11:39:00,42.4,32.5,29.59,East,80,22.0,157.0,68,0.00,,,0.00,Weather View 32 v70,2013-02-27 16:39:00,
2013-02-27 11:44:00,42.4,32.5,29.59,ENE,76,17.0,157.0,68,0.00,,,0.00,Weather View 32 v70,2013-02-27 16:44:00,
2013-02-27 11:49:00,42.2,32.2,29.56,East,87,15.0,157.0,68,0.00,,,0.00,Weather View 32 v70,2013-02-27 16:49:00,
2013-02-27 11:54:00,42.1,32.2,29.53,ESE,107,-999.9,157.0,68,0.00,,,0.00,Weather View 32 v70,2013-02-27 16:54:00,
2013-02-27 11:59:00,42.1,32.2,29.56,ESE,109,17.0,157.0,68,0.00,,,0.00,Weather View 32 v70,2013-02-27 16:59:00,
2013-02-27 12:04:00,42.1,32.3,29.56,East,86,18.0,157.0,68,0.00,,,0.00,Weather View 32 v70,2013-02-27 17:04:00,
2013-02-27 12:09:00,42.1,32.4,29.56,ENE,67,10.0,222.0,68,0.00,,,0.00,Weather View 32 v70,2013-02-27 17:09:00,
2013-02-27 12:14:00,30.0,-56.7,29.56,NNE,14,0.0,222.0,1,0.00,,,0.00,Weather View 32 v70,2013-02-27 17:14:00,
2013-02-27 12:19:00,41.9,32.1,29.53,ENE,73,14.0,222.0,68,0.00,,,0.00,Weather View 32 v70,2013-02-27 17:19:00,
2013-02-27 12:24:00,41.9,32.1,29.53,East,83,11.0,222.0,68,0.00,,,0.00,Weather View 32 v70,2013-02-27 17:24:00,
2013-02-27 12:29:00,41.9,32.2,29.53,ENE,69,16.0,222.0,68,0.00,,,0.00,Weather View 32 v70,2013-02-27 17:29:00,
2013-02-27 12:34:00,41.5,31.9,29.53,East,94,17.0,222.0,69,0.00,,,0.00,Weather View 32 v70,2013-02-27 17:34:00,
2013-02-27 12:39:00,41.5,31.8,29.53,East,82,16.0,222.0,68,0.00,,,0.00,Weather View 32 v70,2013-02-27 17:39:00,
2013-02-27 12:44:00,41.7,32.0,29.53,East,84,16.0,222.0,68,0.00,,,0.00,Weather View 32 v70,2013-02-27 17:44:00,
2013-02-27 12:49:00,41.7,32.2,29.59,ESE,113,15.0,222.0,69,0.00,,,0.00,Weather View 32 v70,2013-02-27 17:49:00,
2013-02-27 12:54:00,41.9,32.2,29.53,East,84,12.0,222.0,68,0.00,,,0.00,Weather View 32 v70,2013-02-27 17:54:00,
2013-02-27 12:59:00,-999.9,0.0,0.00,North,0,0.0,222.0,1,0.00,,,0.00,Weather View 32 v70,2013-02-27 17:59:00,
2013-02-27 13:04:00,41.7,31.9,29.53,ESE,102,14.0,222.0,68,0.00,,,0.00,Weather View 32 v70,2013-02-27 18:04:00,
2013-02-27 13:09:00,41.9,32.1,29.53,ENE,66,7.0,43.0,68,0.00,,,0.00,Weather View 32 v70,2013-02-27 18:09:00,
2013-02-27 13:14:00,42.1,32.2,29.56,ESE,108,14.0,92.0,68,0.00,,,0.00,Weather View 32 v70,2013-02-27 18:14:00,
2013-02-27 13:19:00,42.1,32.3,29.53,East,86,9.0,92.0,68,0.00,,,0.00,Weather View 32 v70,2013-02-27 18:19:00,
2013-02-27 13:24:00,42.1,32.1,29.53,ESE,109,15.0,92.0,68,0.00,,,0.00,Weather View 32 v70,2013-02-27 18:24:00,
2013-02-27 13:29:00,42.2,32.3,29.53,ENE,64,4.0,92.0,68,0.00,,,0.00,Weather View 32 v70,2013-02-27 18:29:00,
2013-02-27 13:34:00,42.1,31.9,29.53,ESE,112,10.0,92.0,67,0.00,,,0.00,Weather View 32 v70,2013-02-27 18:34:00,
2013-02-27 13:39:00,42.1,31.9,29.53,ESE,105,10.0,92.0,67,0.00,,,0.00,Weather View 32 v70,2013-02-27 18:39:00,
2013-02-27 13:44:00,42.2,32.3,29.53,East,86,5.0,92.0,68,0.00,,,0.00,Weather View 32 v70,2013-02-27 18:44:00,
2013-02-27 13:49:00,42.1,31.7,29.53,SE,136,7.0,92.0,67,0.00,,,0.00,Weather View 32 v70,2013-02-27 18:49:00,
2013-02-27 13:54:00,42.2,32.2,29.53,East,79,4.0,92.0,67,0.00,,,0.00,Weather View 32 v70,2013-02-27 18:54:00,
2013-02-27 13:59:00,42.2,32.1,29.53,ENE,75,11.0,999.9,67,0.00,,,0.00,Weather View 32 v70,2013-02-27 18:59:00,
2013-02-27 14:04:00,42.1,31.8,29.53,ESE,106,27.0,999.9,67,0.00,,,0.00,Weather View 32 v70,2013-02-27 19:04:00,
2013-02-27 14:09:00,42.2,32.2,29.53,East,101,13.0,999.9,67,0.00,,,0.00,Weather View 32 v70,2013-02-27 19:09:00,
2013-02-27 14:14:00,42.1,32.0,29.53,East,99,11.0,999.9,67,0.00,,,0.00,Weather View 32 v70,2013-02-27 19:14:00,
2013-02-27 14:19:00,42.4,32.4,29.53,East,93,10.0,999.9,67,0.00,,,0.00,Weather View 32 v70,2013-02-27 19:19:00,
2013-02-27 14:24:00,42.4,32.3,29.53,East,95,13.0,999.9,67,0.00,,,0.00,Weather View 32 v70,2013-02-27 19:24:00,
2013-02-27 14:29:00,42.2,32.2,29.53,East,81,6.0,999.9,67,0.00,,,0.00,Weather View 32 v70,2013-02-27 19:29:00,
2013-02-27 14:34:00,42.2,32.3,29.50,ESE,106,6.0,999.9,68,0.00,,,0.00,Weather View 32 v70,2013-02-27 19:34:00,
2013-02-27 14:39:00,42.2,32.2,29.50,East,99,29.0,999.9,67,0.00,,,0.00,Weather View 32 v70,2013-02-27 19:39:00,
2013-02-27 14:44:00,42.2,32.5,29.50,ENE,65,12.0,999.9,68,0.00,,,0.00,Weather View 32 v70,2013-02-27 19:44:00,
2013-02-27 14:49:00,42.2,32.1,29.50,East,83,18.0,999.9,67,0.00,,,0.00,Weather View 32 v70,2013-02-27 19:49:00,
2013-02-27 14:54:00,42.4,32.1,29.50,SE,132,31.0,999.9,67,0.00,,,0.00,Weather View 32 v70,2013-02-27 19:54:00,
2013-02-27 14:59:00,42.2,32.2,29.50,East,83,19.0,45.0,67,0.00,,,0.00,Weather View 32 v70,2013-02-27 19:59:00,
2013-02-27 15:04:00,30.0,-59.6,29.56,North,0,0.0,45.0,1,0.00,,,0.00,Weather View 32 v70,2013-02-27 20:04:00,
2013-02-27 15:09:00,42.2,32.3,29.53,ENE,77,15.0,45.0,68,0.00,,,0.00,Weather View 32 v70,2013-02-27 20:09:00,
2013-02-27 15:14:00,42.2,32.3,29.53,East,90,15.0,45.0,68,0.00,,,0.00,Weather View 32 v70,2013-02-27 20:14:00,
2013-02-27 15:19:00,42.1,32.2,29.53,East,99,27.0,45.0,68,0.00,,,0.00,Weather View 32 v70,2013-02-27 20:19:00,
2013-02-27 15:24:00,42.2,32.5,29.53,East,87,13.0,45.0,68,0.00,,,0.00,Weather View 32 v70,2013-02-27 20:24:00,
2013-02-27 15:29:00,42.2,32.5,29.50,East,98,23.0,45.0,68,0.00,,,0.00,Weather View 32 v70,2013-02-27 20:29:00,
2013-02-27 15:34:00,42.2,32.6,29.50,East,98,21.0,45.0,69,0.00,,,0.00,Weather View 32 v70,2013-02-27 20:34:00,
2013-02-27 15:39:00,42.2,32.4,29.47,ESE,103,22.0,45.0,68,0.00,,,0.00,Weather View 32 v70,2013-02-27 20:39:00,
2013-02-27 15:44:00,42.4,32.7,29.50,East,96,16.0,45.0,68,0.00,,,0.00,Weather View 32 v70,2013-02-27 20:44:00,
2013-02-27 15:49:00,42.4,-51.8,29.50,North,0,0.0,45.0,1,0.00,,,0.00,Weather View 32 v70,2013-02-27 20:49:00,
2013-02-27 15:54:00,-999.9,0.0,1.00,NNE,12,0.0,45.0,1,0.00,,,0.00,Weather View 32 v70,2013-02-27 20:54:00,
2013-02-27 15:59:00,-999.9,0.0,0.00,North,0,0.0,39.0,1,0.00,,,0.00,Weather View 32 v70,2013-02-27 20:59:00,
2013-02-27 16:04:00,42.4,32.4,29.50,East,94,14.0,39.0,67,0.00,,,0.00,Weather View 32 v70,2013-02-27 21:04:00,
2013-02-27 16:09:00,42.6,32.4,29.50,North,0,0.0,40.0,67,0.00,,,0.00,Weather View 32 v70,2013-02-27 21:09:00,
2013-02-27 16:14:00,42.6,32.4,29.50,East,95,11.0,40.0,67,0.00,,,0.00,Weather View 32 v70,2013-02-27 21:14:00,
2013-02-27 16:19:00,42.4,31.9,29.50,SE,127,24.0,40.0,66,0.00,,,0.00,Weather View 32 v70,2013-02-27 21:19:00,
2013-02-27 16:24:00,42.8,32.4,29.50,ESE,109,11.0,40.0,67,0.00,,,0.00,Weather View 32 v70,2013-02-27 21:24:00,
2013-02-27 16:29:00,42.6,31.8,29.50,East,93,10.0,40.0,66,0.00,,,0.00,Weather View 32 v70,2013-02-27 21:29:00,
2013-02-27 16:35:00,42.8,32.2,29.50,East,95,10.0,40.0,66,0.00,,,0.00,Weather View 32 v70,2013-02-27 21:35:00,
2013-02-27 16:40:00,43.1,32.6,29.50,East,82,5.0,40.0,66,0.00,,,0.00,Weather View 32 v70,2013-02-27 21:40:00,
2013-02-27 16:45:00,43.3,32.7,29.50,East,96,6.0,40.0,66,0.00,,,0.00,Weather View 32 v70,2013-02-27 21:45:00,
2013-02-27 16:50:00,43.3,32.5,29.50,ENE,69,6.0,40.0,65,0.00,,,0.00,Weather View 32 v70,2013-02-27 21:50:00,
2013-02-27 16:55:00,43.0,31.6,29.47,East,84,6.0,40.0,64,0.00,,,0.00,Weather View 32 v70,2013-02-27 21:55:00,
2013-02-27 17:00:00,43.1,32.2,29.50,East,93,6.0,40.0,65,0.00,,,0.00,Weather View 32 v70,2013-02-27 22:00:00,
2013-02-27 17:05:00,42.8,31.5,29.50,SE,130,12.0,40.0,64,0.00,,,0.00,Weather View 32 v70,2013-02-27 22:05:00,
2013-02-27 17:10:00,42.8,31.8,29.50,East,101,11.0,74.0,65,0.00,,,0.00,Weather View 32 v70,2013-02-27 22:10:00,
2013-02-27 17:15:00,42.8,31.9,29.47,ESE,108,9.0,74.0,65,0.00,,,0.00,Weather View 32 v70,2013-02-27 22:15:00,
2013-02-27 17:20:00,43.0,32.3,29.53,ENE,77,6.0,74.0,66,0.00,,,0.00,Weather View 32 v70,2013-02-27 22:20:00,
2013-02-27 17:25:00,42.8,32.1,29.50,ENE,74,8.0,74.0,66,0.00,,,0.00,Weather View 32 v70,2013-02-27 22:25:00,
2013-02-27 17:30:00,42.8,32.2,29.47,ENE,70,10.0,74.0,66,0.00,,,0.00,Weather View 32 v70,2013-02-27 22:30:00,
2013-02-27 17:35:00,43.0,32.6,29.50,ENE,72,8.0,74.0,67,0.00,,,0.00,Weather View 32 v70,2013-02-27 22:35:00,
2013-02-27 17:40:00,42.6,32.1,29.50,ENE,64,8.0,74.0,66,0.00,,,0.00,Weather View 32 v70,2013-02-27 22:40:00,
2013-02-27 17:45:00,42.6,32.0,29.50,ENE,67,7.0,999.9,66,0.00,,,0.00,Weather View 32 v70,2013-02-27 22:45:00,
2013-02-27 17:50:00,30.0,-59.6,0.00,North,0,0.0,999.9,1,0.00,,,0.00,Weather View 32 v70,2013-02-27 22:50:00,
2013-02-27 17:55:00,42.6,32.1,29.50,ENE,64,8.0,999.9,66,0.00,,,0.00,Weather View 32 v70,2013-02-27 22:55:00,
2013-02-27 18:00:00,42.8,32.3,29.50,ENE,72,5.0,999.9,66,0.00,,,0.00,Weather View 32 v70,2013-02-27 23:00:00,
2013-02-27 18:05:00,30.0,-59.6,0.00,North,0,0.0,999.9,1,0.00,,,0.00,Weather View 32 v70,2013-02-27 23:05:00,
2013-02-27 18:10:00,42.6,32.0,29.50,ENE,71,7.0,999.9,66,0.00,,,0.00,Weather View 32 v70,2013-02-27 23:10:00,
2013-02-27 18:15:00,42.4,31.8,29.50,ENE,63,7.0,999.9,66,0.00,,,0.00,Weather View 32 v70,2013-02-27 23:15:00,
2013-02-27 18:20:00,42.4,31.7,29.50,East,83,6.0,999.9,66,0.00,,,0.00,Weather View 32 v70,2013-02-27 23:20:00,
2013-02-27 18:25:00,42.6,32.0,29.50,East,84,6.0,999.9,66,0.00,,,0.00,Weather View 32 v70,2013-02-27 23:25:00,
2013-02-27 18:30:00,42.6,32.1,29.50,ENE,69,3.0,999.9,66,0.00,,,0.00,Weather View 32 v70,2013-02-27 23:30:00,
2013-02-27 18:35:00,43.0,32.5,29.50,ENE,58,4.0,999.9,66,0.00,,,0.00,Weather View 32 v70,2013-02-27 23:35:00,
2013-02-27 18:40:00,43.0,32.4,29.50,ENE,64,3.0,999.9,66,0.00,,,0.00,Weather View 32 v70,2013-02-27 23:40:00,
2013-02-27 18:45:00,43.0,32.4,29.50,NNE,13,4.0,15.0,66,0.00,,,0.00,Weather View 32 v70,2013-02-27 23:45:00,
2013-02-27 18:50:00,43.0,32.4,29.50,East,86,1.0,15.0,66,0.00,,,0.00,Weather View 32 v70,2013-02-27 23:50:00,
2013-02-27 18:55:00,43.0,32.4,29.53,East,80,2.0,15.0,66,0.00,,,0.00,Weather View 32 v70,2013-02-27 23:55:00,
2013-02-27 19:00:00,43.0,32.4,29.50,NE,34,2.0,15.0,66,0.00,,,0.00,Weather View 32 v70,2013-02-28 00:00:00,
2013-02-27 19:05:00,42.8,32.2,29.50,NE,38,3.0,10.0,66,0.00,,,0.00,Weather View 32 v70,2013-02-28 00:05:00,
2013-02-27 19:10:00,42.4,31.7,29.50,North,6,1.0,125.0,66,0.00,,,0.00,Weather View 32 v70,2013-02-28 00:10:00,
2013-02-27 19:15:00,42.2,31.5,29.50,NE,41,2.0,125.0,65,0.00,,,0.00,Weather View 32 v70,2013-02-28 00:15:00,
2013-02-27 19:20:00,42.1,31.2,29.50,North,4,1.0,125.0,65,0.00,,,0.00,Weather View 32 v70,2013-02-28 00:20:00,
2013-02-27 19:25:00,42.1,31.2,29.50,NE,44,2.0,125.0,65,0.00,,,0.00,Weather View 32 v70,2013-02-28 00:25:00,
2013-02-27 19:30:00,42.1,31.2,29.50,NE,54,1.0,125.0,65,0.00,,,0.00,Weather View 32 v70,2013-02-28 00:30:00,
2013-02-27 19:35:00,42.1,31.3,29.50,NNW,343,2.0,125.0,66,0.00,,,0.00,Weather View 32 v70,2013-02-28 00:35:00,
2013-02-27 19:40:00,42.1,31.3,29.50,NE,45,2.0,125.0,65,0.00,,,0.00,Weather View 32 v70,2013-02-28 00:40:00,
2013-02-27 19:45:00,42.1,31.3,29.50,NE,47,2.0,125.0,65,0.00,,,0.00,Weather View 32 v70,2013-02-28 00:45:00,
2013-02-27 19:50:00,42.1,31.2,29.50,NE,53,1.0,125.0,65,0.00,,,0.00,Weather View 32 v70,2013-02-28 00:50:00,
2013-02-27 19:55:00,42.1,31.3,29.47,North,5,2.0,125.0,65,0.00,,,0.00,Weather View 32 v70,2013-02-28 00:55:00,
2013-02-27 20:00:00,41.7,30.9,29.47,NE,46,2.0,125.0,65,0.00,,,0.00,Weather View 32 v70,2013-02-28 01:00:00,
2013-02-27 20:05:00,41.7,30.9,29.50,NNE,12,2.0,125.0,65,0.00,,,0.00,Weather View 32 v70,2013-02-28 01:05:00,
2013-02-27 20:10:00,41.7,30.9,29.50,North,3,2.0,6.0,65,0.00,,,0.00,Weather View 32 v70,2013-02-28 01:10:00,
2013-02-27 20:15:00,41.9,31.1,29.50,ENE,60,2.0,6.0,66,0.00,,,0.00,Weather View 32 v70,2013-02-28 01:15:00,
2013-02-27 20:20:00,41.7,30.9,29.50,North,2,3.0,6.0,65,0.00,,,0.00,Weather View 32 v70,2013-02-28 01:20:00,
2013-02-27 20:25:00,41.7,31.0,29.50,NE,40,1.0,6.0,66,0.00,,,0.00,Weather View 32 v70,2013-02-28 01:25:00,
2013-02-27 20:30:00,41.7,30.9,29.50,NNE,14,3.0,6.0,65,0.00,,,0.00,Weather View 32 v70,2013-02-28 01:30:00,
2013-02-27 20:35:00,41.7,31.0,29.50,North,5,2.0,18.0,66,0.00,,,0.00,Weather View 32 v70,2013-02-28 01:35:00,
2013-02-27 20:40:00,41.5,30.7,29.50,NNE,12,1.0,18.0,65,0.00,,,0.00,Weather View 32 v70,2013-02-28 01:40:00,
2013-02-27 20:45:00,41.7,30.9,29.50,East,84,0.0,18.0,65,0.00,,,0.00,Weather View 32 v70,2013-02-28 01:45:00,
2013-02-27 20:50:00,41.7,31.0,29.50,NE,36,1.0,18.0,66,0.00,,,0.00,Weather View 32 v70,2013-02-28 01:50:00,
2013-02-27 20:55:00,41.7,31.0,29.50,North,8,1.0,18.0,66,0.00,,,0.00,Weather View 32 v70,2013-02-28 01:55:00,
2013-02-27 21:00:00,41.3,30.4,29.50,North,9,1.0,38.0,65,0.00,,,0.00,Weather View 32 v70,2013-02-28 02:00:00,
2013-02-27 21:05:00,41.5,30.7,29.50,North,6,1.0,38.0,65,0.00,,,0.00,Weather View 32 v70,2013-02-28 02:05:00,
2013-02-27 21:10:00,41.5,30.7,29.50,NNE,28,3.0,38.0,65,0.00,,,0.00,Weather View 32 v70,2013-02-28 02:10:00,
2013-02-27 21:15:00,41.5,30.7,29.50,NNW,342,2.0,38.0,65,0.00,,,0.00,Weather View 32 v70,2013-02-28 02:15:00,
2013-02-27 21:20:00,41.0,30.0,29.50,NW,324,1.0,38.0,65,0.00,,,0.00,Weather View 32 v70,2013-02-28 02:20:00,
2013-02-27 21:25:00,41.3,30.4,29.47,NNE,16,2.0,38.0,65,0.00,,,0.00,Weather View 32 v70,2013-02-28 02:25:00,
2013-02-27 21:30:00,41.2,29.9,29.53,West,280,2.0,38.0,64,0.00,,,0.00,Weather View 32 v70,2013-02-28 02:30:00,
2013-02-27 21:35:00,40.8,29.7,29.50,NW,311,2.0,38.0,64,0.00,,,0.00,Weather View 32 v70,2013-02-28 02:35:00,
2013-02-27 21:40:00,41.3,30.1,29.50,NNE,32,3.0,38.0,64,0.00,,,0.00,Weather View 32 v70,2013-02-28 02:40:00,
2013-02-27 21:45:00,41.0,29.7,29.50,WNW,303,4.0,38.0,64,0.00,,,0.00,Weather View 32 v70,2013-02-28 02:45:00,
2013-02-27 21:50:00,40.8,29.4,29.53,NW,309,0.0,38.0,64,0.00,,,0.00,Weather View 32 v70,2013-02-28 02:50:00,
2013-02-27 21:55:00,41.3,30.1,29.50,NE,35,2.0,38.0,64,0.00,,,0.00,Weather View 32 v70,2013-02-28 02:55:00,
2013-02-27 22:00:00,40.8,29.4,29.50,WNW,283,4.0,20.0,64,0.00,,,0.00,Weather View 32 v70,2013-02-28 03:00:00,
2013-02-27 22:05:00,41.0,29.7,29.53,WNW,296,1.0,6.0,64,0.00,,,0.00,Weather View 32 v70,2013-02-28 03:05:00,
2013-02-27 22:10:00,41.3,30.1,29.50,NW,304,1.0,6.0,64,0.00,,,0.00,Weather View 32 v70,2013-02-28 03:10:00,
2013-02-27 22:15:00,41.2,29.9,29.53,North,5,0.0,6.0,64,0.00,,,0.00,Weather View 32 v70,2013-02-28 03:15:00,
2013-02-27 22:20:00,41.2,29.8,29.53,NW,313,1.0,6.0,64,0.00,,,0.00,Weather View 32 v70,2013-02-28 03:20:00,
2013-02-27 22:25:00,30.0,-59.6,0.00,North,0,0.0,6.0,1,0.00,,,0.00,Weather View 32 v70,2013-02-28 03:25:00,
2013-02-27 22:30:00,40.6,29.1,29.50,NW,304,1.0,6.0,63,0.00,,,0.00,Weather View 32 v70,2013-02-28 03:30:00,
2013-02-27 22:35:00,40.4,29.0,29.53,NW,321,1.0,7.0,63,0.00,,,0.00,Weather View 32 v70,2013-02-28 03:35:00,
2013-02-27 22:40:00,40.4,29.1,29.50,North,353,2.0,658.0,64,0.00,,,0.00,Weather View 32 v70,2013-02-28 03:40:00,
2013-02-27 22:45:00,40.3,28.9,29.53,WNW,302,1.0,658.0,64,0.00,,,0.00,Weather View 32 v70,2013-02-28 03:45:00,
2013-02-27 22:50:00,40.3,29.0,29.53,WNW,299,3.0,658.0,64,0.00,,,0.00,Weather View 32 v70,2013-02-28 03:50:00,
2013-02-27 22:55:00,40.1,28.8,29.53,WNW,296,3.0,658.0,64,0.00,,,0.00,Weather View 32 v70,2013-02-28 03:55:00,
2013-02-27 23:00:00,40.1,28.8,29.53,North,353,0.0,658.0,64,0.00,,,0.00,Weather View 32 v70,2013-02-28 04:00:00,
2013-02-27 23:05:00,40.3,29.1,29.53,North,353,2.0,658.0,64,0.00,,,0.00,Weather View 32 v70,2013-02-28 04:05:00,
2013-02-27 23:10:00,40.1,28.9,29.53,WNW,297,3.0,658.0,64,0.00,,,0.00,Weather View 32 v70,2013-02-28 04:10:00,
2013-02-27 23:15:00,40.3,29.1,29.53,ENE,58,2.0,658.0,64,0.00,,,0.00,Weather View 32 v70,2013-02-28 04:15:00,
2013-02-27 23:20:00,40.1,28.9,29.53,WSW,243,1.0,658.0,64,0.00,,,0.00,Weather View 32 v70,2013-02-28 04:20:00,
2013-02-27 23:25:00,39.7,28.5,29.53,WNW,282,1.0,658.0,64,0.00,,,0.00,Weather View 32 v70,2013-02-28 04:25:00,
2013-02-27 23:30:00,40.1,28.9,29.53,ENE,62,0.0,658.0,64,0.00,,,0.00,Weather View 32 v70,2013-02-28 04:30:00,
2013-02-27 23:35:00,30.0,-59.6,0.00,North,0,0.0,658.0,1,0.00,,,0.00,Weather View 32 v70,2013-02-28 04:35:00,
2013-02-27 23:40:00,30.0,-59.6,0.00,North,0,0.0,9.0,1,0.00,,,0.00,Weather View 32 v70,2013-02-28 04:40:00,
2013-02-27 23:45:00,39.9,28.7,29.53,NW,326,2.0,9.0,64,0.00,,,0.00,Weather View 32 v70,2013-02-28 04:45:00,
2013-02-27 23:50:00,39.9,28.6,29.53,WSW,248,0.0,16.0,64,0.00,,,0.00,Weather View 32 v70,2013-02-28 04:50:00,
2013-02-27 23:55:00,40.1,28.8,29.50,East,83,0.0,16.0,64,0.00,,,0.00,Weather View 32 v70,2013-02-28 04:55:00,